sensor_id;sensor_type;location;lat;lon;timestamp;P1;durP1;ratioP1;P2;durP2;ratioP2
7454;SDS011;3769;51.208;4.454;2023-01-26T00:03:57;242.9;;;123.4;;
7454;SDS011;3769;51.208;4.454;2023-01-26T00:08:57;78.4;;;33.8;;
7454;SDS011;3769;51.208;4.454;2023-01-26T00:13:58;71.3;;;30.6;;
7454;SDS011;3769;51.208;4.454;2023-01-26T00:18:57;64.9;;;28.9;;
7454;SDS011;3769;51.208;4.454;2023-01-26T00:23:57;67.9;;;28.4;;
7454;SDS011;3769;51.208;4.454;2023-01-26T00:28:58;59.3;;;27.5;;
7454;SDS011;3769;51.208;4.454;2023-01-26T00:33:57;59.9;;;27.4;;
7454;SDS011;3769;51.208;4.454;2023-01-26T00:38:57;57.8;;;25.4;;
7454;SDS011;3769;51.208;4.454;2023-01-26T00:43:58;54.6;;;25.8;;
7454;SDS011;3769;51.208;4.454;2023-01-26T00:48:57;57;;;23.8;;
7454;SDS011;3769;51.208;4.454;2023-01-26T00:53:57;58.6;;;25.3;;
7454;SDS011;3769;51.208;4.454;2023-01-26T00:58:58;54.9;;;24.2;;
7454;SDS011;3769;51.208;4.454;2023-01-26T01:03:57;55.6;;;25.4;;
7454;SDS011;3769;51.208;4.454;2023-01-26T01:08:58;58.3;;;24.8;;
7454;SDS011;3769;51.208;4.454;2023-01-26T01:13:57;54.9;;;23.8;;
7454;SDS011;3769;51.208;4.454;2023-01-26T01:18:57;49.6;;;21.8;;
7454;SDS011;3769;51.208;4.454;2023-01-26T01:23:58;52.7;;;23;;
7454;SDS011;3769;51.208;4.454;2023-01-26T01:28:57;50;;;21.2;;
7454;SDS011;3769;51.208;4.454;2023-01-26T01:33:57;55.3;;;22.1;;
7454;SDS011;3769;51.208;4.454;2023-01-26T01:38:58;46;;;21.9;;
7454;SDS011;3769;51.208;4.454;2023-01-26T01:44:29;55.7;;;22.2;;
7454;SDS011;3769;51.208;4.454;2023-01-26T01:48:59;51.5;;;21.5;;
7454;SDS011;3769;51.208;4.454;2023-01-26T01:53:58;51.8;;;22.6;;
7454;SDS011;3769;51.208;4.454;2023-01-26T01:58:58;51.6;;;22.2;;
7454;SDS011;3769;51.208;4.454;2023-01-26T02:03:58;53.7;;;22.1;;
7454;SDS011;3769;51.208;4.454;2023-01-26T02:08:58;50;;;20.9;;
7454;SDS011;3769;51.208;4.454;2023-01-26T02:13:57;61.7;;;25.1;;
7454;SDS011;3769;51.208;4.454;2023-01-26T02:18:58;65.1;;;27;;
7454;SDS011;3769;51.208;4.454;2023-01-26T02:24:06;72.2;;;25.7;;
7454;SDS011;3769;51.208;4.454;2023-01-26T02:28:58;61.9;;;25.3;;
7454;SDS011;3769;51.208;4.454;2023-01-26T02:33:58;63;;;24.9;;
7454;SDS011;3769;51.208;4.454;2023-01-26T02:39:03;58.2;;;25.2;;
7454;SDS011;3769;51.208;4.454;2023-01-26T02:43:58;59.5;;;24;;
7454;SDS011;3769;51.208;4.454;2023-01-26T02:48:57;60.8;;;24.1;;
7454;SDS011;3769;51.208;4.454;2023-01-26T02:53:58;52.9;;;22.7;;
7454;SDS011;3769;51.208;4.454;2023-01-26T02:58:57;57.5;;;23.2;;
7454;SDS011;3769;51.208;4.454;2023-01-26T03:03:58;56.8;;;23.9;;
7454;SDS011;3769;51.208;4.454;2023-01-26T03:08:57;58.2;;;23.9;;
7454;SDS011;3769;51.208;4.454;2023-01-26T03:13:57;56.9;;;23.1;;
7454;SDS011;3769;51.208;4.454;2023-01-26T03:18:57;52.4;;;22.7;;
7454;SDS011;3769;51.208;4.454;2023-01-26T03:23:57;54.4;;;22.2;;
7454;SDS011;3769;51.208;4.454;2023-01-26T03:28:57;49.2;;;20.7;;
7454;SDS011;3769;51.208;4.454;2023-01-26T03:33:57;48.1;;;20.1;;
7454;SDS011;3769;51.208;4.454;2023-01-26T03:38:57;47.1;;;19.6;;
7454;SDS011;3769;51.208;4.454;2023-01-26T03:43:57;36.8;;;16.5;;
7454;SDS011;3769;51.208;4.454;2023-01-26T03:48:57;37.3;;;15.9;;
7454;SDS011;3769;51.208;4.454;2023-01-26T03:53:57;42.1;;;17.4;;
7454;SDS011;3769;51.208;4.454;2023-01-26T03:58:58;39.8;;;16.6;;
7454;SDS011;3769;51.208;4.454;2023-01-26T04:03:57;38.3;;;15.5;;
7454;SDS011;3769;51.208;4.454;2023-01-26T04:08:57;38.8;;;17;;
7454;SDS011;3769;51.208;4.454;2023-01-26T04:13:58;36.1;;;15.2;;
7454;SDS011;3769;51.208;4.454;2023-01-26T04:18:57;36.3;;;15.7;;
7454;SDS011;3769;51.208;4.454;2023-01-26T04:23:58;37.9;;;16.5;;
7454;SDS011;3769;51.208;4.454;2023-01-26T04:28:57;36.1;;;16.3;;
7454;SDS011;3769;51.208;4.454;2023-01-26T04:33:58;35.5;;;15.8;;
7454;SDS011;3769;51.208;4.454;2023-01-26T04:38:57;35.1;;;15.7;;
7454;SDS011;3769;51.208;4.454;2023-01-26T04:43:57;31.3;;;14.9;;
7454;SDS011;3769;51.208;4.454;2023-01-26T04:48:57;34.2;;;16.1;;
7454;SDS011;3769;51.208;4.454;2023-01-26T04:53:57;32.7;;;14.1;;
7454;SDS011;3769;51.208;4.454;2023-01-26T04:58:58;34.1;;;14.8;;
7454;SDS011;3769;51.208;4.454;2023-01-26T05:03:58;29.9;;;14.7;;
7454;SDS011;3769;51.208;4.454;2023-01-26T05:08:58;27.5;;;13.6;;
7454;SDS011;3769;51.208;4.454;2023-01-26T05:13:57;33.4;;;14.3;;
7454;SDS011;3769;51.208;4.454;2023-01-26T05:18:58;33.3;;;14.6;;
7454;SDS011;3769;51.208;4.454;2023-01-26T05:23:58;27.9;;;12.9;;
7454;SDS011;3769;51.208;4.454;2023-01-26T05:28:57;31;;;13.8;;
7454;SDS011;3769;51.208;4.454;2023-01-26T05:33:57;37.8;;;14.4;;
7454;SDS011;3769;51.208;4.454;2023-01-26T05:38:58;34;;;13.9;;
7454;SDS011;3769;51.208;4.454;2023-01-26T05:43:57;33;;;14.1;;
7454;SDS011;3769;51.208;4.454;2023-01-26T05:48:58;31.6;;;13;;
7454;SDS011;3769;51.208;4.454;2023-01-26T05:53:57;28.4;;;13;;
7454;SDS011;3769;51.208;4.454;2023-01-26T05:58:58;30.2;;;14;;
7454;SDS011;3769;51.208;4.454;2023-01-26T06:03:57;29.6;;;14.4;;
7454;SDS011;3769;51.208;4.454;2023-01-26T06:08:58;31.5;;;14.3;;
7454;SDS011;3769;51.208;4.454;2023-01-26T06:13:57;28.5;;;13.5;;
7454;SDS011;3769;51.208;4.454;2023-01-26T06:18:58;30.1;;;14.7;;
7454;SDS011;3769;51.208;4.454;2023-01-26T06:23:58;32.3;;;15.4;;
7454;SDS011;3769;51.208;4.454;2023-01-26T06:28:58;31;;;15.1;;
7454;SDS011;3769;51.208;4.454;2023-01-26T06:33:57;33.9;;;14.9;;
7454;SDS011;3769;51.208;4.454;2023-01-26T06:38:57;34.2;;;16;;
7454;SDS011;3769;51.208;4.454;2023-01-26T06:43:57;32.6;;;15.4;;
7454;SDS011;3769;51.208;4.454;2023-01-26T06:48:57;33.5;;;16.1;;
7454;SDS011;3769;51.208;4.454;2023-01-26T06:53:57;33.9;;;15.9;;
7454;SDS011;3769;51.208;4.454;2023-01-26T06:58:57;32;;;15.2;;
7454;SDS011;3769;51.208;4.454;2023-01-26T07:03:57;31.3;;;16.1;;
7454;SDS011;3769;51.208;4.454;2023-01-26T07:08:57;32.7;;;16;;
7454;SDS011;3769;51.208;4.454;2023-01-26T07:13:58;33.6;;;15.7;;
7454;SDS011;3769;51.208;4.454;2023-01-26T07:18:57;34.4;;;16;;
7454;SDS011;3769;51.208;4.454;2023-01-26T07:23:57;36.1;;;16.7;;
7454;SDS011;3769;51.208;4.454;2023-01-26T07:28:58;33.2;;;16.2;;
7454;SDS011;3769;51.208;4.454;2023-01-26T07:33:57;34;;;15.9;;
7454;SDS011;3769;51.208;4.454;2023-01-26T07:38:57;35.9;;;16.8;;
7454;SDS011;3769;51.208;4.454;2023-01-26T07:43:58;36;;;16.8;;
7454;SDS011;3769;51.208;4.454;2023-01-26T07:48:58;37.8;;;16.7;;
7454;SDS011;3769;51.208;4.454;2023-01-26T07:53:58;41;;;18;;
7454;SDS011;3769;51.208;4.454;2023-01-26T07:58:58;38.9;;;17.4;;
7454;SDS011;3769;51.208;4.454;2023-01-26T08:03:58;40.4;;;17.1;;
7454;SDS011;3769;51.208;4.454;2023-01-26T08:08:57;38.1;;;17.1;;
7454;SDS011;3769;51.208;4.454;2023-01-26T08:13:58;42.5;;;18.2;;
7454;SDS011;3769;51.208;4.454;2023-01-26T08:18:58;38.6;;;16.4;;
7454;SDS011;3769;51.208;4.454;2023-01-26T08:23:57;39.4;;;17.4;;
7454;SDS011;3769;51.208;4.454;2023-01-26T08:28:58;36.1;;;16.3;;
7454;SDS011;3769;51.208;4.454;2023-01-26T08:33:58;36;;;15.9;;
7454;SDS011;3769;51.208;4.454;2023-01-26T08:38:58;37.5;;;16.3;;
7454;SDS011;3769;51.208;4.454;2023-01-26T08:43:58;37.6;;;16.1;;
7454;SDS011;3769;51.208;4.454;2023-01-26T08:48:58;37.8;;;17.1;;
7454;SDS011;3769;51.208;4.454;2023-01-26T08:53:57;37.3;;;16.4;;
7454;SDS011;3769;51.208;4.454;2023-01-26T08:58:58;39.6;;;15.8;;
7454;SDS011;3769;51.208;4.454;2023-01-26T09:03:58;42.1;;;16.3;;
7454;SDS011;3769;51.208;4.454;2023-01-26T09:08:58;43.3;;;16.7;;
7454;SDS011;3769;51.208;4.454;2023-01-26T09:13:57;44.4;;;17.5;;
7454;SDS011;3769;51.208;4.454;2023-01-26T09:18:58;43.2;;;17.8;;
7454;SDS011;3769;51.208;4.454;2023-01-26T09:23:58;48.7;;;18.3;;
7454;SDS011;3769;51.208;4.454;2023-01-26T09:28:58;56.5;;;18.7;;
7454;SDS011;3769;51.208;4.454;2023-01-26T09:33:57;61.3;;;19.7;;
7454;SDS011;3769;51.208;4.454;2023-01-26T09:38:58;50.5;;;17.9;;
7454;SDS011;3769;51.208;4.454;2023-01-26T09:44:00;51.4;;;17.3;;
7454;SDS011;3769;51.208;4.454;2023-01-26T09:53:58;50.4;;;19;;
7454;SDS011;3769;51.208;4.454;2023-01-26T09:59:01;48.8;;;18.2;;
7454;SDS011;3769;51.208;4.454;2023-01-26T10:04:03;53;;;18;;
7454;SDS011;3769;51.208;4.454;2023-01-26T10:09:00;50.5;;;17.6;;
7454;SDS011;3769;51.208;4.454;2023-01-26T10:14:00;53;;;17.7;;
7454;SDS011;3769;51.208;4.454;2023-01-26T10:19:06;47.5;;;16.9;;
7454;SDS011;3769;51.208;4.454;2023-01-26T10:23:58;53.5;;;17.5;;
7454;SDS011;3769;51.208;4.454;2023-01-26T10:28:58;52;;;16.6;;
7454;SDS011;3769;51.208;4.454;2023-01-26T10:34:00;52.3;;;16;;
7454;SDS011;3769;51.208;4.454;2023-01-26T10:39:02;39.3;;;13.5;;
7454;SDS011;3769;51.208;4.454;2023-01-26T10:43:58;45.9;;;13.6;;
7454;SDS011;3769;51.208;4.454;2023-01-26T10:49:02;49.2;;;13.8;;
7454;SDS011;3769;51.208;4.454;2023-01-26T10:54:29;42;;;12.9;;
7454;SDS011;3769;51.208;4.454;2023-01-26T10:58:58;43.1;;;13.3;;
7454;SDS011;3769;51.208;4.454;2023-01-26T11:04:00;34.9;;;12.1;;
7454;SDS011;3769;51.208;4.454;2023-01-26T11:09:30;40.6;;;10.5;;
7454;SDS011;3769;51.208;4.454;2023-01-26T11:14:30;35.7;;;10;;
7454;SDS011;3769;51.208;4.454;2023-01-26T11:18:59;36.3;;;7.8;;
7454;SDS011;3769;51.208;4.454;2023-01-26T11:25:06;32.8;;;8.7;;
7454;SDS011;3769;51.208;4.454;2023-01-26T11:29:33;28.8;;;7.2;;
7454;SDS011;3769;51.208;4.454;2023-01-26T11:34:01;32.2;;;6.4;;
7454;SDS011;3769;51.208;4.454;2023-01-26T11:44:18;32.5;;;7.1;;
7454;SDS011;3769;51.208;4.454;2023-01-26T11:59:00;27;;;5.9;;
7454;SDS011;3769;51.208;4.454;2023-01-26T12:03:58;31.3;;;6.1;;
7454;SDS011;3769;51.208;4.454;2023-01-26T12:09:00;32.2;;;5.3;;
7454;SDS011;3769;51.208;4.454;2023-01-26T12:14:03;29.8;;;5.1;;
7454;SDS011;3769;51.208;4.454;2023-01-26T12:19:09;30;;;4.6;;
7454;SDS011;3769;51.208;4.454;2023-01-26T12:23:59;17.6;;;4.6;;
7454;SDS011;3769;51.208;4.454;2023-01-26T12:29:00;19.2;;;4.3;;
7454;SDS011;3769;51.208;4.454;2023-01-26T12:33:58;20;;;4.3;;
7454;SDS011;3769;51.208;4.454;2023-01-26T12:39:02;19.3;;;4;;
7454;SDS011;3769;51.208;4.454;2023-01-26T12:44:02;16.6;;;3.8;;
7454;SDS011;3769;51.208;4.454;2023-01-26T12:49:02;22.2;;;3.7;;
7454;SDS011;3769;51.208;4.454;2023-01-26T12:53:59;18.1;;;3.7;;
7454;SDS011;3769;51.208;4.454;2023-01-26T12:58:58;18.3;;;3.7;;
7454;SDS011;3769;51.208;4.454;2023-01-26T13:03:59;18;;;3.8;;
7454;SDS011;3769;51.208;4.454;2023-01-26T13:09:00;19.5;;;3.8;;
7454;SDS011;3769;51.208;4.454;2023-01-26T13:13:58;16.6;;;3.5;;
7454;SDS011;3769;51.208;4.454;2023-01-26T13:18:58;14.9;;;3.3;;
7454;SDS011;3769;51.208;4.454;2023-01-26T13:23:58;15.3;;;3.3;;
7454;SDS011;3769;51.208;4.454;2023-01-26T13:29:30;15;;;3.8;;
7454;SDS011;3769;51.208;4.454;2023-01-26T13:33:58;17.4;;;3.3;;
7454;SDS011;3769;51.208;4.454;2023-01-26T13:39:00;16.5;;;3.7;;
7454;SDS011;3769;51.208;4.454;2023-01-26T13:44:01;17.5;;;3.7;;
7454;SDS011;3769;51.208;4.454;2023-01-26T13:48:58;18.7;;;4;;
7454;SDS011;3769;51.208;4.454;2023-01-26T13:53:59;16.8;;;3.3;;
7454;SDS011;3769;51.208;4.454;2023-01-26T13:59:07;17.2;;;3.8;;
7454;SDS011;3769;51.208;4.454;2023-01-26T14:04:02;14.2;;;3.1;;
7454;SDS011;3769;51.208;4.454;2023-01-26T14:08:58;15.1;;;3;;
7454;SDS011;3769;51.208;4.454;2023-01-26T14:13:58;13.3;;;3.1;;
7454;SDS011;3769;51.208;4.454;2023-01-26T14:19:14;11.1;;;2.3;;
7454;SDS011;3769;51.208;4.454;2023-01-26T14:23:58;12.8;;;2.4;;
7454;SDS011;3769;51.208;4.454;2023-01-26T14:28:58;15.1;;;3.1;;
7454;SDS011;3769;51.208;4.454;2023-01-26T14:33:58;12.4;;;2.5;;
7454;SDS011;3769;51.208;4.454;2023-01-26T14:38:58;14;;;3.1;;
7454;SDS011;3769;51.208;4.454;2023-01-26T14:43:58;12.8;;;2.8;;
7454;SDS011;3769;51.208;4.454;2023-01-26T14:48:59;12.6;;;3.1;;
7454;SDS011;3769;51.208;4.454;2023-01-26T14:53:59;14.5;;;2.6;;
7454;SDS011;3769;51.208;4.454;2023-01-26T14:58:58;17.8;;;3.1;;
7454;SDS011;3769;51.208;4.454;2023-01-26T15:03:59;12.4;;;3.2;;
7454;SDS011;3769;51.208;4.454;2023-01-26T15:09:00;18.1;;;3.9;;
7454;SDS011;3769;51.208;4.454;2023-01-26T15:13:58;11;;;2.3;;
7454;SDS011;3769;51.208;4.454;2023-01-26T15:18:58;12.2;;;2.5;;
7454;SDS011;3769;51.208;4.454;2023-01-26T15:23:58;14.8;;;2.4;;
7454;SDS011;3769;51.208;4.454;2023-01-26T15:28:59;12.2;;;2.7;;
7454;SDS011;3769;51.208;4.454;2023-01-26T15:33:58;11.8;;;2.6;;
7454;SDS011;3769;51.208;4.454;2023-01-26T15:39:14;8.9;;;1.9;;
7454;SDS011;3769;51.208;4.454;2023-01-26T15:43:58;4.9;;;1.8;;
7454;SDS011;3769;51.208;4.454;2023-01-26T15:48:58;7.3;;;1.9;;
7454;SDS011;3769;51.208;4.454;2023-01-26T15:53:58;9.9;;;2.4;;
7454;SDS011;3769;51.208;4.454;2023-01-26T15:58:58;8.7;;;2.4;;
7454;SDS011;3769;51.208;4.454;2023-01-26T16:03:58;6.9;;;2.3;;
7454;SDS011;3769;51.208;4.454;2023-01-26T16:08:58;8;;;2.1;;
7454;SDS011;3769;51.208;4.454;2023-01-26T16:13:58;10.1;;;3.1;;
7454;SDS011;3769;51.208;4.454;2023-01-26T16:18:58;8.8;;;2.6;;
7454;SDS011;3769;51.208;4.454;2023-01-26T16:23:58;9.6;;;3.1;;
7454;SDS011;3769;51.208;4.454;2023-01-26T16:28:58;11.5;;;2.9;;
7454;SDS011;3769;51.208;4.454;2023-01-26T16:33:58;12.1;;;2.9;;
7454;SDS011;3769;51.208;4.454;2023-01-26T16:38:58;9.4;;;2.9;;
7454;SDS011;3769;51.208;4.454;2023-01-26T16:43:58;9.1;;;2.1;;
7454;SDS011;3769;51.208;4.454;2023-01-26T16:48:58;9;;;2.1;;
7454;SDS011;3769;51.208;4.454;2023-01-26T16:53:58;9;;;2.6;;
7454;SDS011;3769;51.208;4.454;2023-01-26T16:58:58;14.9;;;2.8;;
7454;SDS011;3769;51.208;4.454;2023-01-26T17:03:58;9;;;2.3;;
7454;SDS011;3769;51.208;4.454;2023-01-26T17:08:58;8.4;;;2.2;;
7454;SDS011;3769;51.208;4.454;2023-01-26T17:13:58;7.6;;;1.9;;
7454;SDS011;3769;51.208;4.454;2023-01-26T17:18:58;6.9;;;1.9;;
7454;SDS011;3769;51.208;4.454;2023-01-26T17:23:58;4.1;;;1.8;;
7454;SDS011;3769;51.208;4.454;2023-01-26T17:28:58;5.6;;;1.9;;
7454;SDS011;3769;51.208;4.454;2023-01-26T17:33:58;11;;;3.5;;
7454;SDS011;3769;51.208;4.454;2023-01-26T17:38:58;7;;;2.3;;
7454;SDS011;3769;51.208;4.454;2023-01-26T17:43:58;6.9;;;2.3;;
7454;SDS011;3769;51.208;4.454;2023-01-26T17:48:58;10.6;;;2.3;;
7454;SDS011;3769;51.208;4.454;2023-01-26T17:53:58;9;;;2.9;;
7454;SDS011;3769;51.208;4.454;2023-01-26T17:58:58;12.1;;;2.8;;
7454;SDS011;3769;51.208;4.454;2023-01-26T18:03:58;7;;;2.2;;
7454;SDS011;3769;51.208;4.454;2023-01-26T18:08:58;6.5;;;2.3;;
7454;SDS011;3769;51.208;4.454;2023-01-26T18:13:58;8.4;;;2.5;;
7454;SDS011;3769;51.208;4.454;2023-01-26T18:18:58;8.9;;;2.3;;
7454;SDS011;3769;51.208;4.454;2023-01-26T18:23:59;10.1;;;2.2;;
7454;SDS011;3769;51.208;4.454;2023-01-26T18:28:58;5.8;;;2.1;;
7454;SDS011;3769;51.208;4.454;2023-01-26T18:33:58;6.7;;;2.3;;
7454;SDS011;3769;51.208;4.454;2023-01-26T18:38:59;9.4;;;2.4;;
7454;SDS011;3769;51.208;4.454;2023-01-26T18:43:59;11;;;3.1;;
7454;SDS011;3769;51.208;4.454;2023-01-26T18:48:58;9;;;2.7;;
7454;SDS011;3769;51.208;4.454;2023-01-26T18:53:58;7.8;;;2.1;;
7454;SDS011;3769;51.208;4.454;2023-01-26T18:58:58;9.3;;;2;;
7454;SDS011;3769;51.208;4.454;2023-01-26T19:03:58;9.5;;;2.3;;
7454;SDS011;3769;51.208;4.454;2023-01-26T19:08:59;7.6;;;2.3;;
7454;SDS011;3769;51.208;4.454;2023-01-26T19:13:58;8.1;;;2.8;;
7454;SDS011;3769;51.208;4.454;2023-01-26T19:18:58;9.4;;;2.8;;
7454;SDS011;3769;51.208;4.454;2023-01-26T19:23:58;15;;;6;;
7454;SDS011;3769;51.208;4.454;2023-01-26T19:28:58;10.1;;;3.4;;
7454;SDS011;3769;51.208;4.454;2023-01-26T19:33:58;10.8;;;4.3;;
7454;SDS011;3769;51.208;4.454;2023-01-26T19:38:58;9;;;2.6;;
7454;SDS011;3769;51.208;4.454;2023-01-26T19:43:58;10.2;;;2.6;;
7454;SDS011;3769;51.208;4.454;2023-01-26T19:48:58;9;;;2.2;;
7454;SDS011;3769;51.208;4.454;2023-01-26T19:53:58;12;;;2.8;;
7454;SDS011;3769;51.208;4.454;2023-01-26T19:58:59;10.9;;;2.9;;
7454;SDS011;3769;51.208;4.454;2023-01-26T20:03:59;9.6;;;3.1;;
7454;SDS011;3769;51.208;4.454;2023-01-26T20:08:58;9.5;;;4.4;;
7454;SDS011;3769;51.208;4.454;2023-01-26T20:13:59;10.1;;;2.9;;
7454;SDS011;3769;51.208;4.454;2023-01-26T20:18:58;14.4;;;2.6;;
7454;SDS011;3769;51.208;4.454;2023-01-26T20:23:58;14.5;;;2.2;;
7454;SDS011;3769;51.208;4.454;2023-01-26T20:28:58;13.9;;;6;;
7454;SDS011;3769;51.208;4.454;2023-01-26T20:33:58;6.9;;;2.7;;
7454;SDS011;3769;51.208;4.454;2023-01-26T20:38:58;5.4;;;2.2;;
7454;SDS011;3769;51.208;4.454;2023-01-26T20:43:59;12.9;;;4.8;;
7454;SDS011;3769;51.208;4.454;2023-01-26T20:48:58;15.8;;;5.5;;
7454;SDS011;3769;51.208;4.454;2023-01-26T20:53:58;8.9;;;2.7;;
7454;SDS011;3769;51.208;4.454;2023-01-26T20:58:58;10.1;;;3.2;;
7454;SDS011;3769;51.208;4.454;2023-01-26T21:03:58;11.2;;;3.2;;
7454;SDS011;3769;51.208;4.454;2023-01-26T21:08:58;8.6;;;1.9;;
7454;SDS011;3769;51.208;4.454;2023-01-26T21:13:58;13.3;;;6.2;;
7454;SDS011;3769;51.208;4.454;2023-01-26T21:18:58;8.8;;;3.1;;
7454;SDS011;3769;51.208;4.454;2023-01-26T21:23:58;16.6;;;3.9;;
7454;SDS011;3769;51.208;4.454;2023-01-26T21:28:58;11.4;;;2.7;;
7454;SDS011;3769;51.208;4.454;2023-01-26T21:33:58;26.8;;;12.4;;
7454;SDS011;3769;51.208;4.454;2023-01-26T21:38:58;30.9;;;14.1;;
7454;SDS011;3769;51.208;4.454;2023-01-26T21:43:58;15.8;;;6.7;;
7454;SDS011;3769;51.208;4.454;2023-01-26T21:48:58;10.8;;;2.9;;
7454;SDS011;3769;51.208;4.454;2023-01-26T21:53:58;9.6;;;2.2;;
7454;SDS011;3769;51.208;4.454;2023-01-26T21:58:58;11.4;;;2.7;;
7454;SDS011;3769;51.208;4.454;2023-01-26T22:03:58;10.4;;;2.5;;
7454;SDS011;3769;51.208;4.454;2023-01-26T22:08:58;9.6;;;2.7;;
7454;SDS011;3769;51.208;4.454;2023-01-26T22:13:58;13.1;;;3.6;;
7454;SDS011;3769;51.208;4.454;2023-01-26T22:18:58;15.1;;;3.3;;
7454;SDS011;3769;51.208;4.454;2023-01-26T22:23:58;9.6;;;2.9;;
7454;SDS011;3769;51.208;4.454;2023-01-26T22:28:58;12.4;;;3.8;;
7454;SDS011;3769;51.208;4.454;2023-01-26T22:33:58;12.8;;;4.1;;
7454;SDS011;3769;51.208;4.454;2023-01-26T22:38:58;9.8;;;2.6;;
7454;SDS011;3769;51.208;4.454;2023-01-26T22:43:58;15.1;;;3.5;;
7454;SDS011;3769;51.208;4.454;2023-01-26T22:48:58;12;;;3;;
7454;SDS011;3769;51.208;4.454;2023-01-26T22:53:58;10.4;;;2.6;;
7454;SDS011;3769;51.208;4.454;2023-01-26T22:58:58;10.5;;;2.4;;
7454;SDS011;3769;51.208;4.454;2023-01-26T23:03:58;15.6;;;3;;
7454;SDS011;3769;51.208;4.454;2023-01-26T23:08:58;18.8;;;2.9;;
7454;SDS011;3769;51.208;4.454;2023-01-26T23:13:58;12.5;;;2.8;;
7454;SDS011;3769;51.208;4.454;2023-01-26T23:18:58;13.3;;;2.6;;
7454;SDS011;3769;51.208;4.454;2023-01-26T23:23:58;13.8;;;2.8;;
7454;SDS011;3769;51.208;4.454;2023-01-26T23:28:58;15.8;;;3.8;;
7454;SDS011;3769;51.208;4.454;2023-01-26T23:33:58;10.2;;;2.9;;
7454;SDS011;3769;51.208;4.454;2023-01-26T23:38:58;14.3;;;2.8;;
7454;SDS011;3769;51.208;4.454;2023-01-26T23:43:58;10.4;;;2.7;;
7454;SDS011;3769;51.208;4.454;2023-01-26T23:48:58;13.5;;;2.4;;
7454;SDS011;3769;51.208;4.454;2023-01-26T23:53:58;19.4;;;3;;
7454;SDS011;3769;51.208;4.454;2023-01-26T23:58:58;15.2;;;4.1;;
